Архив погоды в Усугли

Метеограмма Усугли
Четверг, 27 Июня
Время местн. Темп Ветер Видим Явления Облачность нижн/средн/верх Атм. давл. Влжн Точка росы ВНГО R Сост. почвы Tg s
Напр Скр Прв ур.ст ур.м изм
08:00 +13.9° В 2 - 50 км ливневый дождь облачно 699 754 +0.7 92% +12.7° 1 км 8 Влажная (без луж) - -
05:00 +13.2° С-В 1 - 20 км слабый ливневый дождь облачно 698 754 -0.2 94% +12.2° 1 км - - - -
02:00 - +13.7° С-В 1 - - - - 699 754 +0.3 94% +12.7° - - - - -
Среда, 26 Июня
Время местн. Темп Ветер Видим Явления Облачность нижн/средн/верх Атм. давл. Влжн Точка росы ВНГО R Сост. почвы Tg s
Напр Скр Прв ур.ст ур.м изм
23:00 +13.9° В,Ю-В 1 - - - облачно 699 754 +0.3 94% +12.9° 1 км - - - -
20:00 +14.8° З 1 - 50 км ливневый дождь облачно 698 753 +0.2 91% +13.4° 1 км 5 - - -
17:00 +15.9° В 1 - 20 км слабый ливневый дождь облачно 698 753 +1.5 89% +14.1° 1 км - - - -
14:00 +21.5° В 4 10 более 50 км - облачно 697 750 -0.9 48% +9.9° 1 км - - - -
11:00 +20.4° С-В 4 - 50 км - преимущественно облачно 698 751 +0.1 58% +11.9° 1.5 км - - - -
08:00 +17.3° В,С-В 3 - более 50 км - облачно 698 752 +0.1 66% +11° 1 км 0 Сухая (без трещин) +15° -
05:00 - +15.8° Ю,Ю-В 1 - - - - 698 752 +0.2 75% +11.4° - - - - -
02:00 +16.2° В 2 - - - облачно 697 752 -0.3 76% +11.9° 1 км - - - -
Вторник, 25 Июня
Время местн. Темп Ветер Видим Явления Облачность нижн/средн/верх Атм. давл. Влжн Точка росы ВНГО R Сост. почвы Tg s
Напр Скр Прв ур.ст ур.м изм
23:00 +16.2° С,С-В 2 - - - облачно 698 752 +0.2 87% +14° 1 км - - - -
20:00 +18.7° С-В 1 - 50 км - облачно 698 752 +0.4 81% +15.4° 1 км 0 - - -
17:00 +24.1° В 2 - 50 км - облачно 697 750 -0.9 44% +11.1° 1 км - - - -
14:00 +24.4° Ю 3 - 50 км - облачно 698 751 -1.3 41% +10.4° 1.5 км - - - -
11:00 +23° З,С-З 1 - 50 км - облачно с прояснениями 699 753 -1.4 55% +13.4° более 2.5 км - - - -
08:00 +11.7° штиль 0 - 50 км - переменная облачность 701 757 -0.4 95% +11° более 2.5 км 0 Сухая (без трещин) - -
05:00 +7.4° штиль 0 - более 50 км - ясно 701 758 0 95% +6.7° более 2.5 км - - - -
02:00 - +8.4° штиль 0 - - - - 701 758 -0.3 95% +7.6° - - - - -
Понедельник, 24 Июня
Время местн. Темп Ветер Видим Явления Облачность нижн/средн/верх Атм. давл. Влжн Точка росы ВНГО R Сост. почвы Tg s
Напр Скр Прв ур.ст ур.м изм
23:00 +12° Ю 1 - - - переменная облачность 702 757 +1.3 93% +10.9° более 2.5 км - - - -
20:00 +20.6° С-З 1 - более 50 км - переменная облачность 700 754 +0.1 70% +14.9° 1.5 км 0 - - -
17:00 +24.7° С-В 2 - 50 км - переменная облачность 700 753 -0.5 41% +10.4° 1.5 км - - - -
14:00 +23.9° Ю 1 - более 50 км - облачно с прояснениями 701 754 -0.6 47% +11.9° 1.5 км - - - -
11:00 +20.8° В 4 - 50 км - облачно с прояснениями 701 755 +0.4 61% +12.9° 1.5 км - - - -
08:00 +17.6° С 3 - 50 км - облачно 701 755 +0.5 75% +13.1° 1 км 0 Влажная (без луж) - -
05:00 +14.2° штиль 0 - более 50 км - облачно 700 755 -0.1 94% +13.3° 1 км - - - -